Flight Information

DEPARTURE
CAMARILLO, CA
Elevation:
76
Runways:
8/26 - 6013x150 - ASPH-CONC-G
ATIS:
126.025 805-484-3351
Clearance Delivery:
121.8
Ground:
121.8
Tower:
128.2
DESTINATION
,
Elevation:
TPA:
1000 (est.)


6822.3 NM73° True-14° Var58° HDG

Flight Plan:
(click to file on line)

1. Type
2. Aircraft Identification
3. Aircraft Type / Special Equipment
4. True Airspeed
kts
5. Departure Airport
(ICAO code)
6. Arriving Airport
(ICAO code)
7. Cruising Altitude
ft
8. Alternate Airport
(ICAO code)
9. Route of Flight
10. Remarks


00:00:00 Departure ATIS: Destination ATIS:

Clearance Limit:
Route:
Altitude: Expect in minutes
Frequency:
Transponder: (7500 Hijack / 7600 Lost Comms / 7700 Emergency)


KCMA 030755Z AUTO 00000KT 10SM CLR 16/13 A2995 RMK AO2 SLP151 T01610133 402440161
Time: 2022-10-03T07:55:00Z
1664785112
Winds: calm
Visibility: 10.0 sm
Clouds (AGL): CLR
Temperature: 16.1 C
Dew Point: 13.3 C
Pressure: 29.949802 in Hgbr


Notes:

Data extracted from FAA Digital Chart Supplement. Effective: 0901Z Thursday, 27 JAN 2022 to 0900z Thursday, 24 MAR 2022
Current ATIS data is provided courtisy of PilotEdge.